sensor_id;sensor_type;location;lat;lon;timestamp;P1;durP1;ratioP1;P2;durP2;ratioP2
36321;SDS011;23564;48.290;11.460;2023-02-24T00:01:15;26.92;;;15.68;;
36321;SDS011;23564;48.290;11.460;2023-02-24T00:03:58;28.48;;;15.70;;
36321;SDS011;23564;48.290;11.460;2023-02-24T00:06:25;28.50;;;16.40;;
36321;SDS011;23564;48.290;11.460;2023-02-24T00:09:00;30.13;;;17.10;;
36321;SDS011;23564;48.290;11.460;2023-02-24T00:11:33;30.23;;;16.08;;
36321;SDS011;23564;48.290;11.460;2023-02-24T00:14:02;32.45;;;17.10;;
36321;SDS011;23564;48.290;11.460;2023-02-24T00:16:29;25.92;;;16.05;;
36321;SDS011;23564;48.290;11.460;2023-02-24T00:18:56;29.55;;;15.95;;
36321;SDS011;23564;48.290;11.460;2023-02-24T00:21:21;30.77;;;16.63;;
36321;SDS011;23564;48.290;11.460;2023-02-24T00:23:47;27.98;;;16.98;;
36321;SDS011;23564;48.290;11.460;2023-02-24T00:26:13;31.73;;;16.27;;
36321;SDS011;23564;48.290;11.460;2023-02-24T00:28:40;27.75;;;15.98;;
36321;SDS011;23564;48.290;11.460;2023-02-24T00:31:10;29.95;;;17.08;;
36321;SDS011;23564;48.290;11.460;2023-02-24T00:33:40;26.55;;;15.80;;
36321;SDS011;23564;48.290;11.460;2023-02-24T00:36:15;30.30;;;16.35;;
36321;SDS011;23564;48.290;11.460;2023-02-24T00:38:48;29.45;;;16.58;;
36321;SDS011;23564;48.290;11.460;2023-02-24T00:41:18;29.48;;;16.13;;
36321;SDS011;23564;48.290;11.460;2023-02-24T00:43:46;33.70;;;16.60;;
36321;SDS011;23564;48.290;11.460;2023-02-24T00:48:41;31.27;;;16.42;;
36321;SDS011;23564;48.290;11.460;2023-02-24T00:51:13;26.60;;;15.73;;
36321;SDS011;23564;48.290;11.460;2023-02-24T00:53:41;41.17;;;17.35;;
36321;SDS011;23564;48.290;11.460;2023-02-24T00:56:09;35.33;;;17.75;;
36321;SDS011;23564;48.290;11.460;2023-02-24T00:58:40;31.00;;;17.05;;
36321;SDS011;23564;48.290;11.460;2023-02-24T01:01:20;29.92;;;15.25;;
36321;SDS011;23564;48.290;11.460;2023-02-24T01:03:48;30.10;;;16.27;;
36321;SDS011;23564;48.290;11.460;2023-02-24T01:06:15;28.40;;;16.10;;
36321;SDS011;23564;48.290;11.460;2023-02-24T01:08:44;28.95;;;16.08;;
36321;SDS011;23564;48.290;11.460;2023-02-24T01:11:14;26.80;;;15.73;;
36321;SDS011;23564;48.290;11.460;2023-02-24T01:14:02;26.25;;;15.63;;
36321;SDS011;23564;48.290;11.460;2023-02-24T01:16:33;30.92;;;16.27;;
36321;SDS011;23564;48.290;11.460;2023-02-24T01:18:59;31.17;;;15.02;;
36321;SDS011;23564;48.290;11.460;2023-02-24T01:21:26;33.55;;;16.05;;
36321;SDS011;23564;48.290;11.460;2023-02-24T01:23:51;24.30;;;14.70;;
36321;SDS011;23564;48.290;11.460;2023-02-24T01:26:17;23.95;;;14.23;;
36321;SDS011;23564;48.290;11.460;2023-02-24T01:28:44;26.85;;;13.82;;
36321;SDS011;23564;48.290;11.460;2023-02-24T01:31:10;24.42;;;14.43;;
36321;SDS011;23564;48.290;11.460;2023-02-24T01:33:37;28.38;;;14.55;;
36321;SDS011;23564;48.290;11.460;2023-02-24T01:36:07;21.30;;;13.38;;
36321;SDS011;23564;48.290;11.460;2023-02-24T01:38:38;25.55;;;14.80;;
36321;SDS011;23564;48.290;11.460;2023-02-24T01:41:07;23.90;;;14.07;;
36321;SDS011;23564;48.290;11.460;2023-02-24T01:44:03;23.75;;;13.82;;
36321;SDS011;23564;48.290;11.460;2023-02-24T01:46:37;28.95;;;13.88;;
36321;SDS011;23564;48.290;11.460;2023-02-24T01:51:54;23.77;;;13.48;;
36321;SDS011;23564;48.290;11.460;2023-02-24T01:54:24;24.20;;;13.57;;
36321;SDS011;23564;48.290;11.460;2023-02-24T01:56:52;25.35;;;13.38;;
36321;SDS011;23564;48.290;11.460;2023-02-24T01:59:19;26.75;;;13.73;;
36321;SDS011;23564;48.290;11.460;2023-02-24T02:01:47;24.08;;;13.65;;
36321;SDS011;23564;48.290;11.460;2023-02-24T02:04:19;22.55;;;13.52;;
36321;SDS011;23564;48.290;11.460;2023-02-24T02:07:14;25.10;;;12.85;;
36321;SDS011;23564;48.290;11.460;2023-02-24T02:09:43;24.17;;;12.43;;
36321;SDS011;23564;48.290;11.460;2023-02-24T02:12:10;25.40;;;14.07;;
36321;SDS011;23564;48.290;11.460;2023-02-24T02:14:37;25.58;;;13.60;;
36321;SDS011;23564;48.290;11.460;2023-02-24T02:17:29;21.70;;;11.93;;
36321;SDS011;23564;48.290;11.460;2023-02-24T02:27:54;20.15;;;11.98;;
36321;SDS011;23564;48.290;11.460;2023-02-24T02:30:31;20.02;;;11.43;;
36321;SDS011;23564;48.290;11.460;2023-02-24T02:36:36;21.17;;;11.70;;
36321;SDS011;23564;48.290;11.460;2023-02-24T02:39:41;22.85;;;11.82;;
36321;SDS011;23564;48.290;11.460;2023-02-24T02:45:28;21.85;;;11.65;;
36321;SDS011;23564;48.290;11.460;2023-02-24T02:48:22;22.58;;;11.55;;
36321;SDS011;23564;48.290;11.460;2023-02-24T02:51:08;21.52;;;11.05;;
36321;SDS011;23564;48.290;11.460;2023-02-24T02:53:42;26.52;;;11.77;;
36321;SDS011;23564;48.290;11.460;2023-02-24T02:56:24;20.55;;;11.40;;
36321;SDS011;23564;48.290;11.460;2023-02-24T02:58:56;22.80;;;11.57;;
36321;SDS011;23564;48.290;11.460;2023-02-24T03:01:24;21.63;;;10.52;;
36321;SDS011;23564;48.290;11.460;2023-02-24T03:03:54;22.05;;;10.88;;
36321;SDS011;23564;48.290;11.460;2023-02-24T03:06:26;30.17;;;10.67;;
36321;SDS011;23564;48.290;11.460;2023-02-24T03:09:00;19.60;;;10.65;;
36321;SDS011;23564;48.290;11.460;2023-02-24T03:11:40;20.10;;;10.00;;
36321;SDS011;23564;48.290;11.460;2023-02-24T03:14:07;21.65;;;10.65;;
36321;SDS011;23564;48.290;11.460;2023-02-24T03:16:37;19.13;;;11.38;;
36321;SDS011;23564;48.290;11.460;2023-02-24T03:19:06;19.10;;;10.77;;
36321;SDS011;23564;48.290;11.460;2023-02-24T03:24:10;21.70;;;10.70;;
36321;SDS011;23564;48.290;11.460;2023-02-24T03:39:21;17.73;;;9.63;;
36321;SDS011;23564;48.290;11.460;2023-02-24T03:41:50;15.57;;;9.65;;
36321;SDS011;23564;48.290;11.460;2023-02-24T03:44:22;16.13;;;9.25;;
36321;SDS011;23564;48.290;11.460;2023-02-24T03:46:49;16.67;;;10.02;;
36321;SDS011;23564;48.290;11.460;2023-02-24T03:49:15;18.85;;;9.65;;
36321;SDS011;23564;48.290;11.460;2023-02-24T03:51:50;20.42;;;9.40;;
36321;SDS011;23564;48.290;11.460;2023-02-24T04:02:23;16.83;;;10.15;;
36321;SDS011;23564;48.290;11.460;2023-02-24T04:05:00;17.02;;;9.68;;
36321;SDS011;23564;48.290;11.460;2023-02-24T04:07:39;17.50;;;9.02;;
36321;SDS011;23564;48.290;11.460;2023-02-24T04:15:42;19.00;;;9.95;;
36321;SDS011;23564;48.290;11.460;2023-02-24T04:18:14;18.90;;;9.75;;
36321;SDS011;23564;48.290;11.460;2023-02-24T04:20:42;16.50;;;9.85;;
36321;SDS011;23564;48.290;11.460;2023-02-24T04:23:15;17.08;;;9.65;;
36321;SDS011;23564;48.290;11.460;2023-02-24T04:25:43;17.35;;;9.38;;
36321;SDS011;23564;48.290;11.460;2023-02-24T04:28:11;13.60;;;8.50;;
36321;SDS011;23564;48.290;11.460;2023-02-24T04:30:42;13.18;;;7.70;;
36321;SDS011;23564;48.290;11.460;2023-02-24T04:33:12;13.13;;;8.02;;
36321;SDS011;23564;48.290;11.460;2023-02-24T04:35:38;16.13;;;8.07;;
36321;SDS011;23564;48.290;11.460;2023-02-24T04:38:04;13.73;;;8.15;;
36321;SDS011;23564;48.290;11.460;2023-02-24T04:40:30;17.50;;;8.68;;
36321;SDS011;23564;48.290;11.460;2023-02-24T04:42:56;15.82;;;8.23;;
36321;SDS011;23564;48.290;11.460;2023-02-24T04:45:26;17.08;;;8.63;;
36321;SDS011;23564;48.290;11.460;2023-02-24T04:47:53;20.73;;;8.63;;
36321;SDS011;23564;48.290;11.460;2023-02-24T04:50:25;17.50;;;7.50;;
36321;SDS011;23564;48.290;11.460;2023-02-24T04:55:25;14.55;;;7.90;;
36321;SDS011;23564;48.290;11.460;2023-02-24T04:57:57;19.08;;;8.30;;
36321;SDS011;23564;48.290;11.460;2023-02-24T05:00:26;15.25;;;7.90;;
36321;SDS011;23564;48.290;11.460;2023-02-24T05:02:57;19.13;;;7.80;;
36321;SDS011;23564;48.290;11.460;2023-02-24T05:05:23;18.73;;;8.13;;
36321;SDS011;23564;48.290;11.460;2023-02-24T05:08:10;15.95;;;7.97;;
36321;SDS011;23564;48.290;11.460;2023-02-24T05:10:38;12.85;;;7.00;;
36321;SDS011;23564;48.290;11.460;2023-02-24T05:13:06;16.38;;;8.13;;
36321;SDS011;23564;48.290;11.460;2023-02-24T05:15:33;19.85;;;7.82;;
36321;SDS011;23564;48.290;11.460;2023-02-24T05:18:04;12.17;;;7.00;;
36321;SDS011;23564;48.290;11.460;2023-02-24T05:20:41;15.25;;;7.57;;
36321;SDS011;23564;48.290;11.460;2023-02-24T05:23:32;15.35;;;7.75;;
36321;SDS011;23564;48.290;11.460;2023-02-24T05:26:00;14.98;;;8.18;;
36321;SDS011;23564;48.290;11.460;2023-02-24T05:28:28;17.73;;;8.65;;
36321;SDS011;23564;48.290;11.460;2023-02-24T05:31:02;16.48;;;8.20;;
36321;SDS011;23564;48.290;11.460;2023-02-24T05:33:35;16.02;;;8.00;;
36321;SDS011;23564;48.290;11.460;2023-02-24T05:36:04;13.70;;;7.30;;
36321;SDS011;23564;48.290;11.460;2023-02-24T05:38:32;17.80;;;7.80;;
36321;SDS011;23564;48.290;11.460;2023-02-24T05:41:08;18.90;;;9.00;;
36321;SDS011;23564;48.290;11.460;2023-02-24T05:43:40;12.20;;;7.00;;
36321;SDS011;23564;48.290;11.460;2023-02-24T05:46:12;16.15;;;8.30;;
36321;SDS011;23564;48.290;11.460;2023-02-24T05:48:41;15.35;;;7.95;;
36321;SDS011;23564;48.290;11.460;2023-02-24T05:51:07;16.30;;;8.18;;
36321;SDS011;23564;48.290;11.460;2023-02-24T05:53:36;17.13;;;8.13;;
36321;SDS011;23564;48.290;11.460;2023-02-24T05:56:09;13.50;;;7.25;;
36321;SDS011;23564;48.290;11.460;2023-02-24T05:58:35;11.88;;;7.28;;
36321;SDS011;23564;48.290;11.460;2023-02-24T06:01:10;20.65;;;8.32;;
36321;SDS011;23564;48.290;11.460;2023-02-24T06:03:40;15.93;;;7.40;;
36321;SDS011;23564;48.290;11.460;2023-02-24T06:08:40;18.48;;;8.02;;
36321;SDS011;23564;48.290;11.460;2023-02-24T06:11:13;17.50;;;8.63;;
36321;SDS011;23564;48.290;11.460;2023-02-24T06:13:43;16.98;;;8.82;;
36321;SDS011;23564;48.290;11.460;2023-02-24T06:16:11;19.13;;;8.38;;
36321;SDS011;23564;48.290;11.460;2023-02-24T06:18:39;15.23;;;8.40;;
36321;SDS011;23564;48.290;11.460;2023-02-24T06:21:05;18.35;;;7.95;;
36321;SDS011;23564;48.290;11.460;2023-02-24T06:23:31;21.95;;;8.55;;
36321;SDS011;23564;48.290;11.460;2023-02-24T06:26:00;23.00;;;8.77;;
36321;SDS011;23564;48.290;11.460;2023-02-24T06:28:29;19.52;;;8.40;;
36321;SDS011;23564;48.290;11.460;2023-02-24T06:30:57;19.42;;;9.23;;
36321;SDS011;23564;48.290;11.460;2023-02-24T06:33:26;20.48;;;8.73;;
36321;SDS011;23564;48.290;11.460;2023-02-24T06:35:52;22.75;;;9.18;;
36321;SDS011;23564;48.290;11.460;2023-02-24T06:38:17;14.20;;;8.48;;
36321;SDS011;23564;48.290;11.460;2023-02-24T06:40:43;20.02;;;8.20;;
36321;SDS011;23564;48.290;11.460;2023-02-24T06:43:11;16.98;;;8.35;;
36321;SDS011;23564;48.290;11.460;2023-02-24T06:45:36;20.20;;;8.88;;
36321;SDS011;23564;48.290;11.460;2023-02-24T06:48:02;16.48;;;8.63;;
36321;SDS011;23564;48.290;11.460;2023-02-24T06:50:28;18.45;;;8.60;;
36321;SDS011;23564;48.290;11.460;2023-02-24T06:52:55;19.00;;;8.98;;
36321;SDS011;23564;48.290;11.460;2023-02-24T06:55:25;21.33;;;9.13;;
36321;SDS011;23564;48.290;11.460;2023-02-24T06:57:55;20.63;;;9.00;;
36321;SDS011;23564;48.290;11.460;2023-02-24T07:00:23;17.15;;;8.02;;
36321;SDS011;23564;48.290;11.460;2023-02-24T07:03:01;17.60;;;8.35;;
36321;SDS011;23564;48.290;11.460;2023-02-24T07:05:47;16.45;;;7.70;;
36321;SDS011;23564;48.290;11.460;2023-02-24T07:08:35;16.17;;;7.43;;
36321;SDS011;23564;48.290;11.460;2023-02-24T07:11:01;15.18;;;7.30;;
36321;SDS011;23564;48.290;11.460;2023-02-24T07:13:30;15.70;;;7.28;;
36321;SDS011;23564;48.290;11.460;2023-02-24T07:15:58;13.30;;;7.47;;
36321;SDS011;23564;48.290;11.460;2023-02-24T07:18:30;17.40;;;8.27;;
36321;SDS011;23564;48.290;11.460;2023-02-24T07:20:59;19.67;;;7.72;;
36321;SDS011;23564;48.290;11.460;2023-02-24T07:23:29;17.75;;;8.15;;
36321;SDS011;23564;48.290;11.460;2023-02-24T07:25:55;14.05;;;7.10;;
36321;SDS011;23564;48.290;11.460;2023-02-24T07:28:22;17.60;;;8.10;;
36321;SDS011;23564;48.290;11.460;2023-02-24T07:30:49;18.23;;;8.77;;
36321;SDS011;23564;48.290;11.460;2023-02-24T07:33:16;18.98;;;7.65;;
36321;SDS011;23564;48.290;11.460;2023-02-24T07:35:48;16.02;;;7.60;;
36321;SDS011;23564;48.290;11.460;2023-02-24T07:38:15;17.45;;;8.20;;
36321;SDS011;23564;48.290;11.460;2023-02-24T07:40:41;16.15;;;7.40;;
36321;SDS011;23564;48.290;11.460;2023-02-24T07:43:07;14.48;;;6.90;;
36321;SDS011;23564;48.290;11.460;2023-02-24T07:45:32;15.02;;;6.65;;
36321;SDS011;23564;48.290;11.460;2023-02-24T07:47:59;18.50;;;8.57;;
36321;SDS011;23564;48.290;11.460;2023-02-24T07:50:25;14.80;;;7.20;;
36321;SDS011;23564;48.290;11.460;2023-02-24T07:52:52;21.85;;;8.13;;
36321;SDS011;23564;48.290;11.460;2023-02-24T07:55:18;16.88;;;6.72;;
36321;SDS011;23564;48.290;11.460;2023-02-24T07:57:43;16.23;;;7.53;;
36321;SDS011;23564;48.290;11.460;2023-02-24T08:00:14;12.95;;;6.85;;
36321;SDS011;23564;48.290;11.460;2023-02-24T08:02:44;25.70;;;7.50;;
36321;SDS011;23564;48.290;11.460;2023-02-24T08:05:10;31.23;;;7.78;;
36321;SDS011;23564;48.290;11.460;2023-02-24T08:07:36;17.17;;;8.38;;
36321;SDS011;23564;48.290;11.460;2023-02-24T08:10:02;14.50;;;7.30;;
36321;SDS011;23564;48.290;11.460;2023-02-24T08:12:48;18.17;;;7.60;;
36321;SDS011;23564;48.290;11.460;2023-02-24T08:15:20;27.02;;;7.90;;
36321;SDS011;23564;48.290;11.460;2023-02-24T08:17:53;12.52;;;7.43;;
36321;SDS011;23564;48.290;11.460;2023-02-24T08:20:23;19.88;;;8.55;;
36321;SDS011;23564;48.290;11.460;2023-02-24T08:22:50;15.55;;;8.43;;
36321;SDS011;23564;48.290;11.460;2023-02-24T08:25:18;15.75;;;7.68;;
36321;SDS011;23564;48.290;11.460;2023-02-24T08:27:47;14.25;;;8.75;;
36321;SDS011;23564;48.290;11.460;2023-02-24T08:30:20;17.85;;;8.05;;
36321;SDS011;23564;48.290;11.460;2023-02-24T08:32:53;17.92;;;8.35;;
36321;SDS011;23564;48.290;11.460;2023-02-24T08:35:28;19.08;;;8.90;;
36321;SDS011;23564;48.290;11.460;2023-02-24T08:37:56;20.25;;;8.88;;
36321;SDS011;23564;48.290;11.460;2023-02-24T08:40:30;18.88;;;9.85;;
36321;SDS011;23564;48.290;11.460;2023-02-24T08:46:04;21.52;;;9.27;;
36321;SDS011;23564;48.290;11.460;2023-02-24T08:48:43;18.92;;;9.93;;
36321;SDS011;23564;48.290;11.460;2023-02-24T08:51:27;19.60;;;10.63;;
36321;SDS011;23564;48.290;11.460;2023-02-24T08:53:56;24.55;;;11.02;;
36321;SDS011;23564;48.290;11.460;2023-02-24T08:56:24;28.15;;;12.35;;
36321;SDS011;23564;48.290;11.460;2023-02-24T08:58:55;30.83;;;11.48;;
36321;SDS011;23564;48.290;11.460;2023-02-24T09:01:29;30.50;;;14.27;;
36321;SDS011;23564;48.290;11.460;2023-02-24T09:03:59;44.65;;;18.35;;
36321;SDS011;23564;48.290;11.460;2023-02-24T09:09:07;28.88;;;13.18;;
36321;SDS011;23564;48.290;11.460;2023-02-24T09:11:45;26.15;;;13.00;;
36321;SDS011;23564;48.290;11.460;2023-02-24T09:14:14;35.58;;;16.88;;
36321;SDS011;23564;48.290;11.460;2023-02-24T09:16:45;26.15;;;11.88;;
36321;SDS011;23564;48.290;11.460;2023-02-24T09:22:26;26.65;;;12.18;;
36321;SDS011;23564;48.290;11.460;2023-02-24T09:25:03;27.73;;;13.15;;
36321;SDS011;23564;48.290;11.460;2023-02-24T09:28:04;24.58;;;12.40;;
36321;SDS011;23564;48.290;11.460;2023-02-24T09:30:32;31.42;;;13.45;;
36321;SDS011;23564;48.290;11.460;2023-02-24T09:33:10;33.00;;;13.80;;
36321;SDS011;23564;48.290;11.460;2023-02-24T09:35:59;22.02;;;11.70;;
36321;SDS011;23564;48.290;11.460;2023-02-24T09:38:35;24.40;;;12.00;;
36321;SDS011;23564;48.290;11.460;2023-02-24T09:42:09;31.02;;;13.13;;
36321;SDS011;23564;48.290;11.460;2023-02-24T09:50:12;24.37;;;12.07;;
36321;SDS011;23564;48.290;11.460;2023-02-24T09:52:48;21.88;;;12.48;;
36321;SDS011;23564;48.290;11.460;2023-02-24T10:00:52;24.92;;;13.25;;
36321;SDS011;23564;48.290;11.460;2023-02-24T10:06:19;29.40;;;14.20;;
36321;SDS011;23564;48.290;11.460;2023-02-24T10:08:56;34.13;;;14.30;;
36321;SDS011;23564;48.290;11.460;2023-02-24T10:11:39;33.15;;;14.65;;
36321;SDS011;23564;48.290;11.460;2023-02-24T10:14:17;27.98;;;14.98;;
36321;SDS011;23564;48.290;11.460;2023-02-24T10:16:53;31.85;;;15.20;;
36321;SDS011;23564;48.290;11.460;2023-02-24T10:19:46;34.30;;;15.82;;
36321;SDS011;23564;48.290;11.460;2023-02-24T10:22:33;26.08;;;13.80;;
36321;SDS011;23564;48.290;11.460;2023-02-24T10:33:30;32.53;;;15.88;;
36321;SDS011;23564;48.290;11.460;2023-02-24T10:36:18;32.88;;;14.80;;
36321;SDS011;23564;48.290;11.460;2023-02-24T10:38:51;34.60;;;15.02;;
36321;SDS011;23564;48.290;11.460;2023-02-24T10:41:20;28.88;;;16.75;;
36321;SDS011;23564;48.290;11.460;2023-02-24T10:43:55;33.45;;;14.98;;
36321;SDS011;23564;48.290;11.460;2023-02-24T10:46:26;27.73;;;15.48;;
36321;SDS011;23564;48.290;11.460;2023-02-24T10:49:03;34.35;;;15.68;;
36321;SDS011;23564;48.290;11.460;2023-02-24T10:51:40;30.10;;;15.43;;
36321;SDS011;23564;48.290;11.460;2023-02-24T10:54:10;31.23;;;16.20;;
36321;SDS011;23564;48.290;11.460;2023-02-24T10:57:09;31.73;;;16.30;;
36321;SDS011;23564;48.290;11.460;2023-02-24T10:59:46;38.22;;;18.38;;
36321;SDS011;23564;48.290;11.460;2023-02-24T11:02:36;28.92;;;16.42;;
36321;SDS011;23564;48.290;11.460;2023-02-24T11:05:24;31.08;;;16.10;;
36321;SDS011;23564;48.290;11.460;2023-02-24T11:08:17;25.58;;;15.10;;
36321;SDS011;23564;48.290;11.460;2023-02-24T11:11:35;31.98;;;17.33;;
36321;SDS011;23564;48.290;11.460;2023-02-24T11:14:18;33.25;;;17.15;;
36321;SDS011;23564;48.290;11.460;2023-02-24T11:17:02;35.05;;;17.27;;
36321;SDS011;23564;48.290;11.460;2023-02-24T11:19:46;36.63;;;17.25;;
36321;SDS011;23564;48.290;11.460;2023-02-24T11:22:23;37.53;;;17.20;;
36321;SDS011;23564;48.290;11.460;2023-02-24T11:24:54;34.58;;;17.17;;
36321;SDS011;23564;48.290;11.460;2023-02-24T11:27:21;35.53;;;17.92;;
36321;SDS011;23564;48.290;11.460;2023-02-24T11:35:18;30.50;;;16.98;;
36321;SDS011;23564;48.290;11.460;2023-02-24T11:40:31;39.50;;;20.13;;
36321;SDS011;23564;48.290;11.460;2023-02-24T11:43:04;38.10;;;18.80;;
36321;SDS011;23564;48.290;11.460;2023-02-24T11:45:45;44.10;;;22.73;;
36321;SDS011;23564;48.290;11.460;2023-02-24T11:48:16;41.80;;;21.27;;
36321;SDS011;23564;48.290;11.460;2023-02-24T11:56:15;42.33;;;20.38;;
36321;SDS011;23564;48.290;11.460;2023-02-24T11:59:06;40.35;;;18.45;;
36321;SDS011;23564;48.290;11.460;2023-02-24T12:09:50;43.30;;;23.20;;
36321;SDS011;23564;48.290;11.460;2023-02-24T12:15:31;44.35;;;23.48;;
36321;SDS011;23564;48.290;11.460;2023-02-24T12:18:23;41.00;;;17.05;;
36321;SDS011;23564;48.290;11.460;2023-02-24T12:20:56;35.05;;;17.17;;
36321;SDS011;23564;48.290;11.460;2023-02-24T12:23:33;33.75;;;16.15;;
36321;SDS011;23564;48.290;11.460;2023-02-24T12:29:06;32.50;;;15.68;;
36321;SDS011;23564;48.290;11.460;2023-02-24T12:31:46;36.90;;;17.23;;
36321;SDS011;23564;48.290;11.460;2023-02-24T12:42:27;37.03;;;17.10;;
36321;SDS011;23564;48.290;11.460;2023-02-24T12:45:10;38.35;;;17.90;;
36321;SDS011;23564;48.290;11.460;2023-02-24T12:53:22;34.10;;;18.77;;
36321;SDS011;23564;48.290;11.460;2023-02-24T12:58:36;38.55;;;18.88;;
36321;SDS011;23564;48.290;11.460;2023-02-24T13:04:03;37.03;;;19.02;;
36321;SDS011;23564;48.290;11.460;2023-02-24T13:06:48;35.60;;;18.30;;
36321;SDS011;23564;48.290;11.460;2023-02-24T13:10:19;33.78;;;17.25;;
36321;SDS011;23564;48.290;11.460;2023-02-24T13:12:42;39.28;;;19.58;;
36321;SDS011;23564;48.290;11.460;2023-02-24T13:15:19;39.13;;;20.02;;
36321;SDS011;23564;48.290;11.460;2023-02-24T13:17:48;41.45;;;19.27;;
36321;SDS011;23564;48.290;11.460;2023-02-24T13:20:32;40.88;;;18.13;;
36321;SDS011;23564;48.290;11.460;2023-02-24T13:23:01;38.72;;;18.70;;
36321;SDS011;23564;48.290;11.460;2023-02-24T13:25:37;36.92;;;18.20;;
36321;SDS011;23564;48.290;11.460;2023-02-24T13:28:04;38.42;;;19.48;;
36321;SDS011;23564;48.290;11.460;2023-02-24T13:30:46;36.53;;;18.77;;
36321;SDS011;23564;48.290;11.460;2023-02-24T13:33:22;33.47;;;18.13;;
36321;SDS011;23564;48.290;11.460;2023-02-24T13:36:03;35.00;;;18.23;;
36321;SDS011;23564;48.290;11.460;2023-02-24T13:38:42;37.10;;;19.00;;
36321;SDS011;23564;48.290;11.460;2023-02-24T13:41:33;35.95;;;17.52;;
36321;SDS011;23564;48.290;11.460;2023-02-24T13:44:47;37.38;;;18.08;;
36321;SDS011;23564;48.290;11.460;2023-02-24T13:49:25;37.47;;;18.40;;
36321;SDS011;23564;48.290;11.460;2023-02-24T13:52:15;33.08;;;17.60;;
36321;SDS011;23564;48.290;11.460;2023-02-24T13:55:36;42.85;;;19.35;;
36321;SDS011;23564;48.290;11.460;2023-02-24T14:01:18;41.00;;;17.80;;
36321;SDS011;23564;48.290;11.460;2023-02-24T14:04:05;38.00;;;18.38;;
36321;SDS011;23564;48.290;11.460;2023-02-24T14:06:51;35.33;;;18.10;;
36321;SDS011;23564;48.290;11.460;2023-02-24T14:09:42;36.88;;;19.77;;
36321;SDS011;23564;48.290;11.460;2023-02-24T14:12:23;34.95;;;18.33;;
36321;SDS011;23564;48.290;11.460;2023-02-24T14:14:55;37.03;;;18.08;;
36321;SDS011;23564;48.290;11.460;2023-02-24T14:17:25;34.85;;;17.63;;
36321;SDS011;23564;48.290;11.460;2023-02-24T14:20:39;31.00;;;18.20;;
36321;SDS011;23564;48.290;11.460;2023-02-24T14:22:47;33.20;;;16.45;;
36321;SDS011;23564;48.290;11.460;2023-02-24T14:25:18;30.25;;;16.52;;
36321;SDS011;23564;48.290;11.460;2023-02-24T14:27:46;30.35;;;16.73;;
36321;SDS011;23564;48.290;11.460;2023-02-24T14:32:55;39.75;;;18.17;;
36321;SDS011;23564;48.290;11.460;2023-02-24T14:35:34;41.67;;;16.58;;
36321;SDS011;23564;48.290;11.460;2023-02-24T14:38:06;37.53;;;17.77;;
36321;SDS011;23564;48.290;11.460;2023-02-24T14:40:50;31.90;;;16.60;;
36321;SDS011;23564;48.290;11.460;2023-02-24T14:43:16;33.53;;;16.65;;
36321;SDS011;23564;48.290;11.460;2023-02-24T14:45:46;35.78;;;18.20;;
36321;SDS011;23564;48.290;11.460;2023-02-24T14:48:34;42.05;;;18.88;;
36321;SDS011;23564;48.290;11.460;2023-02-24T14:51:00;35.00;;;17.45;;
36321;SDS011;23564;48.290;11.460;2023-02-24T14:53:34;37.15;;;17.13;;
36321;SDS011;23564;48.290;11.460;2023-02-24T14:56:14;37.00;;;18.10;;
36321;SDS011;23564;48.290;11.460;2023-02-24T14:58:45;36.20;;;18.17;;
36321;SDS011;23564;48.290;11.460;2023-02-24T15:03:55;36.00;;;16.83;;
36321;SDS011;23564;48.290;11.460;2023-02-24T15:06:24;40.20;;;17.63;;
36321;SDS011;23564;48.290;11.460;2023-02-24T15:08:58;35.72;;;16.15;;
36321;SDS011;23564;48.290;11.460;2023-02-24T15:11:27;32.30;;;16.38;;
36321;SDS011;23564;48.290;11.460;2023-02-24T15:14:04;35.45;;;16.83;;
36321;SDS011;23564;48.290;11.460;2023-02-24T15:16:43;33.45;;;16.08;;
36321;SDS011;23564;48.290;11.460;2023-02-24T15:19:30;36.80;;;17.23;;
36321;SDS011;23564;48.290;11.460;2023-02-24T15:21:57;42.20;;;17.77;;
36321;SDS011;23564;48.290;11.460;2023-02-24T15:26:52;41.70;;;19.27;;
36321;SDS011;23564;48.290;11.460;2023-02-24T15:29:24;38.20;;;19.40;;
36321;SDS011;23564;48.290;11.460;2023-02-24T15:31:55;51.40;;;20.63;;
36321;SDS011;23564;48.290;11.460;2023-02-24T15:34:29;37.17;;;20.00;;
36321;SDS011;23564;48.290;11.460;2023-02-24T15:37:01;41.08;;;19.10;;
36321;SDS011;23564;48.290;11.460;2023-02-24T15:39:40;49.90;;;20.17;;
36321;SDS011;23564;48.290;11.460;2023-02-24T15:42:29;43.15;;;20.48;;
36321;SDS011;23564;48.290;11.460;2023-02-24T15:44:58;39.35;;;19.73;;
36321;SDS011;23564;48.290;11.460;2023-02-24T15:47:27;50.53;;;21.77;;
36321;SDS011;23564;48.290;11.460;2023-02-24T15:50:05;43.72;;;21.58;;
36321;SDS011;23564;48.290;11.460;2023-02-24T15:52:31;47.05;;;21.20;;
36321;SDS011;23564;48.290;11.460;2023-02-24T15:54:57;40.45;;;20.38;;
36321;SDS011;23564;48.290;11.460;2023-02-24T15:57:26;40.00;;;20.05;;
36321;SDS011;23564;48.290;11.460;2023-02-24T15:59:54;43.03;;;18.58;;
36321;SDS011;23564;48.290;11.460;2023-02-24T16:02:20;36.15;;;18.20;;
36321;SDS011;23564;48.290;11.460;2023-02-24T16:04:47;36.90;;;17.83;;
36321;SDS011;23564;48.290;11.460;2023-02-24T16:07:23;46.90;;;19.30;;
36321;SDS011;23564;48.290;11.460;2023-02-24T16:09:54;33.28;;;17.90;;
36321;SDS011;23564;48.290;11.460;2023-02-24T16:12:25;42.47;;;18.15;;
36321;SDS011;23564;48.290;11.460;2023-02-24T16:14:55;39.15;;;18.90;;
36321;SDS011;23564;48.290;11.460;2023-02-24T16:17:40;37.88;;;16.75;;
36321;SDS011;23564;48.290;11.460;2023-02-24T16:20:09;39.65;;;18.40;;
36321;SDS011;23564;48.290;11.460;2023-02-24T16:22:38;41.70;;;17.80;;
36321;SDS011;23564;48.290;11.460;2023-02-24T16:25:03;40.70;;;16.98;;
36321;SDS011;23564;48.290;11.460;2023-02-24T16:27:29;32.50;;;16.95;;
36321;SDS011;23564;48.290;11.460;2023-02-24T16:29:55;34.65;;;15.95;;
36321;SDS011;23564;48.290;11.460;2023-02-24T16:32:22;44.97;;;16.67;;
36321;SDS011;23564;48.290;11.460;2023-02-24T16:34:49;34.45;;;15.93;;
36321;SDS011;23564;48.290;11.460;2023-02-24T16:37:20;36.78;;;16.50;;
36321;SDS011;23564;48.290;11.460;2023-02-24T16:39:53;36.53;;;16.42;;
36321;SDS011;23564;48.290;11.460;2023-02-24T16:42:19;43.42;;;17.77;;
36321;SDS011;23564;48.290;11.460;2023-02-24T16:44:48;40.33;;;17.02;;
36321;SDS011;23564;48.290;11.460;2023-02-24T16:47:16;40.58;;;18.35;;
36321;SDS011;23564;48.290;11.460;2023-02-24T16:49:44;37.05;;;18.75;;
36321;SDS011;23564;48.290;11.460;2023-02-24T16:52:11;41.15;;;18.38;;
36321;SDS011;23564;48.290;11.460;2023-02-24T16:54:37;43.15;;;18.70;;
36321;SDS011;23564;48.290;11.460;2023-02-24T16:57:03;37.08;;;18.10;;
36321;SDS011;23564;48.290;11.460;2023-02-24T16:59:28;43.70;;;18.13;;
36321;SDS011;23564;48.290;11.460;2023-02-24T17:01:54;35.40;;;17.67;;
36321;SDS011;23564;48.290;11.460;2023-02-24T17:04:21;46.75;;;17.20;;
36321;SDS011;23564;48.290;11.460;2023-02-24T17:06:49;47.42;;;18.90;;
36321;SDS011;23564;48.290;11.460;2023-02-24T17:09:15;98.38;;;42.22;;
36321;SDS011;23564;48.290;11.460;2023-02-24T17:11:42;33.47;;;17.17;;
36321;SDS011;23564;48.290;11.460;2023-02-24T17:14:15;36.38;;;15.20;;